createdAt,value
2017-06-19T00:01:30.928Z,3.87
2017-06-19T00:03:58.431Z,3.37
2017-06-19T00:06:25.956Z,3.97
2017-06-19T00:08:53.459Z,4.03
2017-06-19T00:11:20.983Z,4.20
2017-06-19T00:13:48.485Z,3.93
2017-06-19T00:16:16.756Z,4.07
2017-06-19T00:18:44.284Z,3.87
2017-06-19T00:21:17.547Z,3.80
2017-06-19T00:23:50.663Z,3.90
2017-06-19T00:26:18.163Z,4.20
2017-06-19T00:28:46.431Z,3.90
2017-06-19T00:31:13.955Z,4.23
2017-06-19T00:33:41.459Z,4.07
2017-06-19T00:36:09.722Z,4.17
2017-06-19T00:38:37.240Z,3.90
2017-06-19T00:41:04.743Z,3.60
2017-06-19T00:43:33.035Z,4.30
2017-06-19T00:46:01.304Z,4.63
2017-06-19T00:48:29.571Z,4.73
2017-06-19T00:50:57.095Z,4.60
2017-06-19T00:53:24.599Z,4.03
2017-06-19T00:55:52.866Z,4.33
2017-06-19T00:58:20.386Z,4.30
2017-06-19T01:00:47.888Z,4.00
2017-06-19T01:03:15.387Z,3.80
2017-06-19T01:05:42.907Z,4.60
2017-06-19T01:08:10.411Z,4.30
2017-06-19T01:10:37.907Z,4.00
2017-06-19T01:13:05.431Z,4.70
2017-06-19T01:15:32.932Z,3.77
2017-06-19T01:18:00.434Z,4.37
2017-06-19T01:20:27.958Z,4.10
2017-06-19T01:22:55.484Z,4.57
2017-06-19T01:25:22.990Z,4.70
2017-06-19T01:27:50.511Z,4.27
2017-06-19T01:30:18.016Z,4.27
2017-06-19T01:32:45.523Z,4.80
2017-06-19T01:35:13.051Z,4.47
2017-06-19T01:37:40.551Z,4.10
2017-06-19T01:40:08.820Z,4.40
2017-06-19T01:42:36.343Z,4.47
2017-06-19T01:45:03.844Z,4.50
2017-06-19T01:47:32.119Z,4.50
2017-06-19T01:50:00.411Z,4.73
2017-06-19T01:52:28.679Z,4.87
2017-06-19T01:54:56.955Z,4.57
2017-06-19T01:57:24.500Z,4.83
2017-06-19T01:59:51.999Z,5.40
2017-06-19T02:02:19.506Z,4.73
2017-06-19T02:04:47.023Z,5.07
2017-06-19T02:07:14.524Z,4.90
2017-06-19T02:09:42.051Z,4.73
2017-06-19T02:12:09.575Z,4.57
2017-06-19T02:14:37.079Z,4.73
2017-06-19T02:17:04.623Z,4.60
2017-06-19T02:19:32.131Z,4.50
2017-06-19T02:22:00.403Z,4.60
2017-06-19T02:24:27.948Z,5.10
2017-06-19T02:26:55.452Z,5.47
2017-06-19T02:29:22.959Z,4.93
2017-06-19T02:31:50.483Z,5.10
2017-06-19T02:34:17.988Z,4.40
2017-06-19T02:36:45.483Z,5.70
2017-06-19T02:39:13.007Z,4.50
2017-06-19T02:41:40.508Z,5.20
2017-06-19T02:44:08.039Z,5.00
2017-06-19T02:46:36.303Z,5.57
2017-06-19T02:49:03.799Z,4.50
2017-06-19T02:51:31.346Z,5.67
2017-06-19T02:53:58.848Z,5.73
2017-06-19T02:56:26.348Z,4.80
2017-06-19T02:58:54.643Z,6.27
2017-06-19T03:01:22.147Z,5.53
2017-06-19T03:03:49.651Z,5.07
2017-06-19T03:06:17.176Z,5.37
2017-06-19T03:08:44.674Z,5.70
2017-06-19T03:11:12.178Z,5.30
2017-06-19T03:13:39.704Z,5.23
2017-06-19T03:16:08.011Z,5.30
2017-06-19T03:18:35.515Z,5.47
2017-06-19T03:21:03.807Z,5.40
2017-06-19T03:23:31.311Z,6.00
2017-06-19T03:25:58.806Z,5.13
2017-06-19T03:28:27.107Z,5.93
2017-06-19T03:30:54.611Z,5.47
2017-06-19T03:33:22.118Z,5.80
2017-06-19T03:35:49.644Z,5.20
2017-06-19T03:38:17.911Z,6.20
2017-06-19T03:40:45.415Z,5.80
2017-06-19T03:43:12.931Z,5.50
2017-06-19T03:45:40.435Z,5.70
2017-06-19T03:48:07.984Z,6.40
2017-06-19T03:50:35.487Z,5.80
2017-06-19T03:53:02.987Z,5.53
2017-06-19T03:55:30.507Z,6.47
2017-06-19T03:57:58.011Z,6.10
2017-06-19T04:00:25.551Z,6.40
2017-06-19T04:02:53.828Z,6.00
2017-06-19T04:05:22.091Z,6.20
2017-06-19T04:07:50.391Z,5.67
2017-06-19T04:10:17.891Z,6.30
2017-06-19T04:12:45.395Z,6.20
2017-06-19T04:15:13.679Z,5.80
2017-06-19T04:17:41.183Z,5.80
2017-06-19T04:20:08.686Z,5.33
2017-06-19T04:22:36.975Z,5.20
2017-06-19T04:25:04.479Z,4.10
2017-06-19T04:27:31.983Z,4.93
2017-06-19T04:29:59.507Z,4.07
2017-06-19T04:32:27.011Z,4.60
2017-06-19T04:34:54.510Z,4.20
2017-06-19T04:37:22.035Z,4.50
2017-06-19T04:39:49.543Z,4.80
2017-06-19T04:42:17.043Z,4.47
2017-06-19T04:44:44.588Z,4.57
2017-06-19T04:47:12.092Z,4.63
2017-06-19T04:49:39.595Z,4.03
2017-06-19T04:52:07.887Z,4.93
2017-06-19T04:54:35.392Z,4.77
2017-06-19T04:57:02.892Z,4.97
2017-06-19T04:59:30.419Z,4.70
2017-06-19T05:01:57.923Z,4.87
2017-06-19T05:04:25.427Z,5.27
2017-06-19T05:06:52.971Z,5.23
2017-06-19T05:09:20.475Z,5.07
2017-06-19T05:11:48.743Z,5.43
2017-06-19T05:14:16.272Z,5.70
2017-06-19T05:16:43.775Z,5.60
2017-06-19T05:19:11.317Z,5.17
2017-06-19T05:21:38.815Z,5.00
2017-06-19T05:24:06.326Z,4.93
2017-06-19T05:26:33.851Z,5.17
2017-06-19T05:29:01.351Z,4.63
2017-06-19T05:31:28.847Z,4.60
2017-06-19T05:33:56.371Z,5.03
2017-06-19T05:36:23.872Z,5.03
2017-06-19T05:38:51.375Z,4.57
2017-06-19T05:41:18.901Z,4.27
2017-06-19T05:43:46.399Z,4.73
2017-06-19T05:46:13.900Z,4.50
2017-06-19T05:48:41.427Z,4.40
2017-06-19T05:51:09.691Z,4.53
2017-06-19T05:53:37.192Z,4.30
2017-06-19T05:56:04.718Z,4.17
2017-06-19T05:58:32.987Z,4.50
2017-06-19T06:01:00.489Z,4.50
2017-06-19T06:03:28.007Z,4.03
2017-06-19T06:05:55.511Z,3.67
2017-06-19T06:08:23.050Z,4.80
2017-06-19T06:10:50.551Z,4.37
2017-06-19T06:13:18.055Z,4.00
2017-06-19T06:15:45.591Z,3.93
2017-06-19T06:18:13.095Z,3.93
2017-06-19T06:20:40.603Z,4.10
2017-06-19T06:23:08.131Z,3.90
2017-06-19T06:25:35.642Z,3.90
2017-06-19T06:28:03.143Z,4.20
2017-06-19T06:30:30.672Z,4.10
2017-06-19T06:32:58.170Z,4.43
2017-06-19T06:35:25.677Z,4.00
2017-06-19T06:37:53.984Z,3.90
2017-06-19T06:40:21.486Z,4.00
2017-06-19T06:42:49.004Z,3.50
2017-06-19T06:45:16.529Z,3.73
2017-06-19T06:47:44.035Z,3.60
2017-06-19T06:50:11.539Z,3.80
2017-06-19T06:52:39.067Z,3.73
2017-06-19T06:55:06.568Z,3.50
2017-06-19T06:57:34.067Z,3.10
2017-06-19T07:00:01.592Z,3.50
2017-06-19T07:02:29.093Z,3.17
2017-06-19T07:04:56.591Z,4.10
2017-06-19T07:07:24.167Z,3.10
2017-06-19T07:09:51.672Z,3.57
2017-06-19T07:12:19.176Z,3.80
2017-06-19T07:14:46.699Z,3.40
2017-06-19T07:17:14.201Z,3.20
2017-06-19T07:19:41.710Z,4.10
2017-06-19T07:22:09.235Z,3.77
2017-06-19T07:24:36.786Z,3.57
2017-06-19T07:27:04.288Z,3.53
2017-06-19T07:29:31.824Z,3.40
2017-06-19T07:31:59.327Z,3.80
2017-06-19T07:34:26.827Z,3.40
2017-06-19T07:36:54.351Z,3.70
2017-06-19T07:39:21.850Z,4.37
2017-06-19T07:41:49.355Z,3.40
2017-06-19T07:44:16.895Z,3.77
2017-06-19T07:46:44.399Z,3.50
2017-06-19T07:49:11.899Z,3.07
2017-06-19T07:51:39.426Z,3.60
2017-06-19T07:54:06.923Z,3.70
2017-06-19T07:56:34.424Z,3.00
2017-06-19T07:59:01.955Z,3.63
2017-06-19T08:01:29.463Z,3.10
2017-06-19T08:03:56.967Z,3.50
2017-06-19T08:06:24.488Z,3.20
2017-06-19T08:08:51.991Z,3.10
2017-06-19T08:11:20.264Z,3.47
2017-06-19T08:13:47.783Z,3.70
2017-06-19T08:16:15.286Z,3.53
2017-06-19T08:18:43.568Z,3.00
2017-06-19T08:21:11.835Z,2.90
2017-06-19T08:23:45.314Z,3.03
2017-06-19T08:26:12.820Z,3.17
2017-06-19T08:28:40.326Z,3.43
2017-06-19T08:31:07.860Z,3.17
2017-06-19T08:33:35.363Z,3.70
2017-06-19T08:36:02.862Z,3.37
2017-06-19T08:38:30.375Z,3.10
2017-06-19T08:40:58.655Z,3.60
2017-06-19T08:43:26.952Z,2.93
2017-06-19T08:45:54.458Z,2.80
2017-06-19T08:48:21.962Z,2.83
2017-06-19T08:50:50.255Z,3.27
2017-06-19T08:53:17.759Z,3.60
2017-06-19T08:55:45.260Z,3.60
2017-06-19T08:58:12.786Z,3.20
2017-06-19T09:00:40.287Z,3.43
2017-06-19T09:03:07.792Z,3.20
2017-06-19T09:05:35.315Z,2.80
2017-06-19T09:08:02.819Z,3.07
2017-06-19T09:10:30.323Z,2.90
2017-06-19T09:12:57.855Z,3.60
2017-06-19T09:15:26.123Z,3.60
2017-06-19T09:17:53.624Z,3.10
2017-06-19T09:20:21.151Z,3.63
2017-06-19T09:22:48.680Z,3.30
2017-06-19T09:25:16.183Z,4.67
2017-06-19T09:27:43.711Z,3.47
2017-06-19T09:30:11.976Z,3.50
2017-06-19T09:32:39.483Z,3.27
2017-06-19T09:35:07.008Z,3.33
2017-06-19T09:37:35.275Z,4.00
2017-06-19T09:40:02.776Z,3.57
2017-06-19T09:42:30.306Z,3.27
2017-06-19T09:44:58.576Z,3.80
2017-06-19T09:47:26.846Z,3.70
2017-06-19T09:49:54.372Z,3.33
2017-06-19T09:52:21.874Z,3.57
2017-06-19T09:54:50.156Z,3.80
2017-06-19T09:57:17.707Z,3.80
2017-06-19T09:59:45.970Z,4.53
2017-06-19T10:02:13.471Z,3.40
2017-06-19T10:04:40.989Z,3.80
2017-06-19T10:07:08.492Z,3.33
2017-06-19T10:09:35.995Z,3.23
2017-06-19T10:12:03.527Z,3.57
2017-06-19T10:14:31.032Z,3.70
2017-06-19T10:16:59.299Z,3.10
2017-06-19T10:19:26.824Z,3.70
2017-06-19T10:21:54.331Z,3.57
2017-06-19T10:24:22.599Z,3.23
2017-06-19T10:26:50.898Z,3.70
2017-06-19T10:29:18.399Z,3.50
2017-06-19T10:31:45.896Z,4.10
2017-06-19T10:34:14.199Z,4.27
2017-06-19T10:36:41.703Z,3.80
2017-06-19T10:39:09.199Z,3.83
2017-06-19T10:41:36.723Z,3.50
2017-06-19T10:44:04.227Z,3.30
2017-06-19T10:46:31.735Z,3.50
2017-06-19T10:48:59.258Z,3.20
2017-06-19T10:51:26.762Z,3.00
2017-06-19T10:53:54.271Z,3.00
2017-06-19T10:56:21.802Z,3.20
2017-06-19T10:58:50.063Z,3.20
2017-06-19T11:01:18.331Z,3.80
2017-06-19T11:03:45.861Z,3.90
2017-06-19T11:06:13.363Z,3.50
2017-06-19T11:08:41.635Z,4.13
2017-06-19T11:11:09.931Z,3.40
2017-06-19T11:13:37.435Z,3.90
2017-06-19T11:16:04.935Z,3.70
2017-06-19T11:18:33.223Z,3.50
2017-06-19T11:21:00.735Z,3.90
2017-06-19T11:23:28.235Z,3.60
2017-06-19T11:25:55.759Z,4.20
2017-06-19T11:28:23.261Z,3.70
2017-06-19T11:30:50.763Z,3.73
2017-06-19T11:33:18.294Z,4.60
2017-06-19T11:35:45.798Z,3.53
2017-06-19T11:38:13.299Z,3.77
2017-06-19T11:40:40.827Z,3.90
2017-06-19T11:43:09.091Z,4.03
2017-06-19T11:45:36.592Z,4.40
2017-06-19T11:48:04.121Z,4.70
2017-06-19T11:50:32.391Z,4.33
2017-06-19T11:53:00.659Z,3.70
2017-06-19T11:55:28.184Z,3.53
2017-06-19T11:57:55.691Z,4.20
2017-06-19T12:00:23.960Z,3.50
2017-06-19T12:02:52.246Z,4.30
2017-06-19T12:05:19.747Z,4.27
2017-06-19T12:07:47.247Z,4.00
2017-06-19T12:10:14.767Z,3.97
2017-06-19T12:12:42.307Z,4.30
2017-06-19T12:15:09.819Z,3.93
2017-06-19T12:17:37.323Z,4.07
2017-06-19T12:20:04.823Z,4.50
2017-06-19T12:22:32.343Z,4.07
2017-06-19T12:24:59.839Z,4.27
2017-06-19T12:27:27.340Z,3.97
2017-06-19T12:29:54.861Z,3.77
2017-06-19T12:32:22.361Z,4.20
2017-06-19T12:34:49.863Z,4.50
2017-06-19T12:37:17.382Z,4.30
2017-06-19T12:39:44.892Z,4.50
2017-06-19T12:42:12.395Z,4.40
2017-06-19T12:44:39.922Z,3.70
2017-06-19T12:47:08.200Z,3.83
2017-06-19T12:49:35.708Z,4.27
2017-06-19T12:52:03.229Z,4.57
2017-06-19T12:54:30.727Z,4.60
2017-06-19T12:56:58.228Z,4.40
2017-06-19T12:59:25.749Z,4.70
2017-06-19T13:01:53.251Z,4.10
2017-06-19T13:04:20.780Z,4.47
2017-06-19T13:06:48.284Z,4.50
2017-06-19T13:09:15.795Z,4.30
2017-06-19T13:11:43.321Z,4.33
2017-06-19T13:14:10.831Z,4.13
2017-06-19T13:16:38.336Z,4.57
2017-06-19T13:19:05.860Z,4.03
2017-06-19T13:21:34.130Z,3.80
2017-06-19T13:24:02.403Z,4.17
2017-06-19T13:26:29.924Z,4.13
2017-06-19T13:28:57.427Z,4.10
2017-06-19T13:31:25.700Z,4.10
2017-06-19T13:33:53.991Z,4.07
2017-06-19T13:36:21.500Z,4.30
2017-06-19T13:38:49.029Z,4.13
2017-06-19T13:41:16.537Z,4.20
2017-06-19T13:43:44.049Z,4.03
2017-06-19T13:46:11.580Z,4.10
2017-06-19T13:48:39.855Z,3.97
2017-06-19T13:51:08.124Z,4.67
2017-06-19T13:53:36.411Z,4.13
2017-06-19T13:56:03.924Z,4.37
2017-06-19T13:58:31.435Z,4.60
2017-06-19T14:00:58.957Z,4.37
2017-06-19T14:03:26.469Z,4.83
2017-06-19T14:05:53.972Z,3.93
2017-06-19T14:08:21.500Z,4.20
2017-06-19T14:10:49.008Z,4.50
2017-06-19T14:13:17.282Z,4.50
2017-06-19T14:15:44.816Z,4.30
2017-06-19T14:18:12.318Z,4.60
2017-06-19T14:20:39.823Z,4.30
2017-06-19T14:23:07.373Z,4.43
2017-06-19T14:25:34.879Z,4.70
2017-06-19T14:28:02.380Z,4.60
2017-06-19T14:30:29.911Z,4.93
2017-06-19T14:32:57.419Z,4.87
2017-06-19T14:35:24.923Z,4.30
2017-06-19T14:37:52.463Z,3.70
2017-06-19T14:40:20.731Z,4.10
2017-06-19T14:42:49.003Z,4.50
2017-06-19T14:45:16.543Z,4.57
2017-06-19T14:47:44.039Z,4.30
2017-06-19T14:50:12.307Z,4.03
2017-06-19T14:52:39.836Z,4.50
2017-06-19T14:55:07.339Z,4.47
2017-06-19T14:57:34.842Z,4.70
2017-06-19T15:00:02.367Z,4.30
2017-06-19T15:02:29.867Z,3.93
2017-06-19T15:04:57.367Z,4.23
2017-06-19T15:07:25.659Z,4.57
2017-06-19T15:09:53.158Z,4.50
2017-06-19T15:12:20.659Z,3.90
2017-06-19T15:14:48.955Z,4.20
2017-06-19T15:17:16.456Z,4.67
2017-06-19T15:19:43.958Z,5.00
2017-06-19T15:22:17.257Z,4.40
2017-06-19T15:24:44.775Z,4.47
2017-06-19T15:27:12.275Z,4.33
2017-06-19T15:29:39.799Z,4.30
2017-06-19T15:32:07.295Z,3.90
2017-06-19T15:34:34.807Z,4.40
2017-06-19T15:37:02.330Z,4.70
2017-06-19T15:39:29.827Z,4.03
2017-06-19T15:41:57.331Z,4.60
2017-06-19T15:44:24.856Z,4.43
2017-06-19T15:46:53.127Z,4.70
2017-06-19T15:49:20.734Z,4.50
2017-06-19T15:51:48.263Z,5.13
2017-06-19T15:54:16.526Z,4.70
2017-06-19T15:56:44.796Z,4.77
2017-06-19T15:59:12.323Z,4.17
2017-06-19T16:01:39.823Z,5.07
2017-06-19T16:04:08.095Z,4.40
2017-06-19T16:06:36.386Z,5.00
2017-06-19T16:09:04.656Z,4.63
2017-06-19T16:11:32.919Z,4.40
2017-06-19T16:14:00.440Z,4.50
2017-06-19T16:16:27.948Z,4.87
2017-06-19T16:18:56.243Z,4.70
2017-06-19T16:21:23.747Z,4.97
2017-06-19T16:23:51.246Z,4.67
2017-06-19T16:26:19.534Z,4.20
2017-06-19T16:28:47.042Z,3.87
2017-06-19T16:31:14.576Z,4.30
2017-06-19T16:33:42.075Z,4.63
2017-06-19T16:36:09.579Z,4.10
2017-06-19T16:38:37.107Z,4.43
2017-06-19T16:41:05.383Z,4.47
2017-06-19T16:43:32.907Z,4.60
2017-06-19T16:46:00.411Z,4.70
2017-06-19T16:48:27.916Z,4.70
2017-06-19T16:50:55.435Z,4.37
2017-06-19T16:53:22.939Z,3.97
2017-06-19T16:55:50.470Z,4.20
2017-06-19T16:58:17.970Z,4.27
2017-06-19T17:00:45.471Z,3.93
2017-06-19T17:03:12.999Z,5.20
2017-06-19T17:05:41.276Z,4.10
2017-06-19T17:08:09.572Z,4.23
2017-06-19T17:10:37.079Z,3.70
2017-06-19T17:13:04.583Z,4.40
2017-06-19T17:15:32.111Z,4.37
2017-06-19T17:17:59.611Z,3.83
2017-06-19T17:20:27.137Z,3.73
2017-06-19T17:22:54.644Z,3.73
2017-06-19T17:25:22.143Z,3.83
2017-06-19T17:27:49.667Z,4.13
2017-06-19T17:30:17.171Z,4.43
2017-06-19T17:32:45.463Z,4.70
2017-06-19T17:35:13.732Z,4.27
2017-06-19T17:37:42.003Z,3.60
2017-06-19T17:40:10.288Z,4.30
2017-06-19T17:42:38.558Z,3.83
2017-06-19T17:45:06.856Z,3.57
2017-06-19T17:47:34.364Z,3.80
2017-06-19T17:50:01.867Z,4.00
2017-06-19T17:52:29.390Z,3.83
2017-06-19T17:54:56.910Z,4.00
2017-06-19T17:57:24.435Z,4.30
2017-06-19T17:59:52.710Z,3.83
2017-06-19T18:02:20.978Z,3.80
2017-06-19T18:04:49.264Z,4.03
2017-06-19T18:07:16.770Z,3.90
2017-06-19T18:09:44.295Z,3.37
2017-06-19T18:12:11.795Z,3.30
2017-06-19T18:14:39.302Z,3.40
2017-06-19T18:17:06.823Z,3.10
2017-06-19T18:19:34.327Z,3.70
2017-06-19T18:22:01.900Z,2.93
2017-06-19T18:24:29.407Z,3.97
2017-06-19T18:26:56.931Z,3.60
2017-06-19T18:29:24.455Z,3.67
2017-06-19T18:31:51.959Z,4.40
2017-06-19T18:34:19.487Z,4.67
2017-06-19T18:36:46.993Z,4.47
2017-06-19T18:39:14.528Z,4.80
2017-06-19T18:41:42.091Z,4.43
2017-06-19T18:44:10.419Z,4.40
2017-06-19T18:46:37.927Z,4.10
2017-06-19T18:49:05.446Z,4.10
2017-06-19T18:51:32.948Z,4.30
2017-06-19T18:54:00.483Z,3.90
2017-06-19T18:56:27.992Z,4.23
2017-06-19T18:58:55.499Z,3.70
2017-06-19T19:01:23.023Z,4.30
2017-06-19T19:03:51.292Z,3.50
2017-06-19T19:06:19.583Z,4.17
2017-06-19T19:08:47.090Z,4.57
2017-06-19T19:11:14.617Z,4.00
2017-06-19T19:13:42.120Z,4.27
2017-06-19T19:16:09.626Z,4.60
2017-06-19T19:18:37.147Z,4.30
2017-06-19T19:21:04.649Z,4.17
2017-06-19T19:23:32.171Z,4.80
2017-06-19T19:26:00.443Z,4.27
2017-06-19T19:28:27.971Z,3.97
2017-06-19T19:30:55.476Z,4.87
2017-06-19T19:33:23.747Z,4.27
2017-06-19T19:35:52.036Z,4.43
2017-06-19T19:38:19.540Z,4.20
2017-06-19T19:40:47.073Z,4.33
2017-06-19T19:43:14.578Z,4.20
2017-06-19T19:45:42.083Z,4.97
2017-06-19T19:48:09.603Z,4.53
2017-06-19T19:50:37.108Z,4.30
2017-06-19T19:53:04.628Z,4.27
2017-06-19T19:55:32.900Z,4.60
2017-06-19T19:58:01.196Z,4.50
2017-06-19T20:00:28.698Z,4.33
2017-06-19T20:02:56.207Z,4.70
2017-06-19T20:05:23.731Z,5.33
2017-06-19T20:07:51.231Z,4.60
2017-06-19T20:10:18.755Z,5.10
2017-06-19T20:12:46.259Z,4.50
2017-06-19T20:15:13.765Z,4.13
2017-06-19T20:17:41.287Z,4.90
2017-06-19T20:20:08.787Z,4.67
2017-06-19T20:22:36.313Z,4.57
2017-06-19T20:25:03.831Z,4.50
2017-06-19T20:27:32.067Z,4.80
2017-06-19T20:29:59.603Z,4.40
2017-06-19T20:32:29.691Z,4.90
2017-06-19T20:34:57.547Z,5.20
2017-06-19T20:37:29.204Z,4.80
2017-06-19T20:39:59.366Z,5.37
2017-06-19T20:42:29.122Z,4.50
2017-06-19T20:44:57.643Z,4.80
2017-06-19T20:47:26.240Z,4.83
2017-06-19T20:49:55.593Z,4.80
2017-06-19T20:52:23.981Z,5.20
2017-06-19T20:54:52.356Z,5.30
2017-06-19T20:57:19.885Z,4.67
2017-06-19T20:59:47.454Z,4.70
2017-06-19T21:02:15.656Z,4.70
2017-06-19T21:04:43.184Z,4.60
2017-06-19T21:07:10.705Z,5.03
2017-06-19T21:09:38.215Z,4.73
2017-06-19T21:12:05.747Z,4.37
2017-06-19T21:14:33.307Z,4.97
2017-06-19T21:17:00.844Z,5.00
2017-06-19T21:19:28.379Z,5.10
2017-06-19T21:21:56.236Z,4.30
2017-06-19T21:24:23.863Z,4.70
2017-06-19T21:26:52.148Z,5.00
2017-06-19T21:29:19.659Z,4.87
2017-06-19T21:31:47.186Z,4.60
2017-06-19T21:34:14.692Z,4.93
2017-06-19T21:36:42.220Z,5.30
2017-06-19T21:39:09.723Z,4.37
2017-06-19T21:41:37.231Z,4.60
2017-06-19T21:44:04.751Z,5.17
2017-06-19T21:46:32.256Z,4.60
2017-06-19T21:48:59.787Z,5.10
2017-06-19T21:51:27.294Z,5.30
2017-06-19T21:53:54.799Z,5.07
2017-06-19T21:56:23.087Z,5.50
2017-06-19T21:58:50.591Z,4.87
2017-06-19T22:01:18.125Z,5.23
2017-06-19T22:03:45.634Z,5.37
2017-06-19T22:06:13.140Z,5.30
2017-06-19T22:08:40.659Z,5.47
2017-06-19T22:11:08.163Z,5.10
2017-06-19T22:13:35.692Z,6.23
2017-06-19T22:16:03.197Z,5.63
2017-06-19T22:18:30.699Z,4.83
2017-06-19T22:21:04.695Z,5.47
2017-06-19T22:23:35.031Z,4.90
2017-06-19T22:26:02.552Z,5.23
2017-06-19T22:28:30.056Z,4.83
2017-06-19T22:30:58.348Z,5.07
2017-06-19T22:33:25.855Z,5.10
2017-06-19T22:35:53.355Z,5.00
2017-06-19T22:38:20.880Z,4.90
2017-06-19T22:40:48.383Z,5.40
2017-06-19T22:43:15.908Z,5.47
2017-06-19T22:45:43.419Z,5.70
2017-06-19T22:48:10.948Z,5.23
2017-06-19T22:50:38.458Z,6.30
2017-06-19T22:53:05.964Z,5.40
2017-06-19T22:55:33.491Z,5.50
2017-06-19T22:58:01.000Z,5.30
2017-06-19T23:00:28.528Z,5.50
2017-06-19T23:02:56.076Z,5.50
2017-06-19T23:05:23.584Z,5.33
2017-06-19T23:07:51.107Z,5.50
2017-06-19T23:10:18.612Z,5.43
2017-06-19T23:12:46.135Z,5.73
2017-06-19T23:15:13.642Z,4.73
2017-06-19T23:17:41.144Z,5.40
2017-06-19T23:20:08.667Z,5.60
2017-06-19T23:22:36.171Z,5.90
2017-06-19T23:25:03.711Z,6.20
2017-06-19T23:27:31.983Z,6.53
2017-06-19T23:30:00.255Z,5.97
2017-06-19T23:32:27.779Z,5.73
2017-06-19T23:34:55.283Z,6.30
2017-06-19T23:37:22.816Z,5.80
2017-06-19T23:39:50.325Z,5.70
2017-06-19T23:42:17.829Z,5.80
2017-06-19T23:44:45.348Z,6.30
2017-06-19T23:47:12.855Z,6.70
2017-06-19T23:49:40.375Z,6.80
2017-06-19T23:52:07.884Z,6.60
2017-06-19T23:54:36.151Z,6.93
2017-06-19T23:57:03.674Z,6.20
2017-06-19T23:59:31.190Z,7.27
